createdAt,value
2018-08-20T00:00:04.764Z,17.312
2018-08-20T00:01:04.498Z,17.312
2018-08-20T00:02:04.060Z,17.312
2018-08-20T00:03:04.589Z,17.375
2018-08-20T00:04:04.407Z,17.375
2018-08-20T00:05:04.844Z,17.375
2018-08-20T00:06:04.044Z,17.375
2018-08-20T00:07:04.570Z,17.375
2018-08-20T00:08:03.692Z,17.437
2018-08-20T00:09:04.560Z,17.437
2018-08-20T00:10:04.287Z,17.437
2018-08-20T00:11:04.684Z,17.375
2018-08-20T00:12:04.505Z,17.375
2018-08-20T00:13:04.264Z,17.375
2018-08-20T00:14:03.692Z,17.375
2018-08-20T00:15:04.023Z,17.437
2018-08-20T00:16:03.934Z,17.437
2018-08-20T00:17:03.818Z,17.437
2018-08-20T00:18:03.801Z,17.437
2018-08-20T00:19:04.624Z,17.5
2018-08-20T00:20:04.590Z,17.5
2018-08-20T00:21:04.209Z,17.5
2018-08-20T00:22:04.094Z,17.562
2018-08-20T00:23:04.145Z,17.562
2018-08-20T00:24:04.041Z,17.562
2018-08-20T00:25:03.872Z,17.562
2018-08-20T00:26:04.569Z,17.562
2018-08-20T00:27:04.129Z,17.562
2018-08-20T00:28:04.401Z,17.625
2018-08-20T00:29:03.837Z,17.687
2018-08-20T00:30:03.997Z,17.687
2018-08-20T00:31:04.486Z,17.687
2018-08-20T00:32:03.693Z,17.687
2018-08-20T00:33:04.365Z,17.687
2018-08-20T00:34:04.183Z,17.75
2018-08-20T00:35:05.439Z,17.75
2018-08-20T00:36:03.688Z,17.75
2018-08-20T00:37:04.172Z,17.812
2018-08-20T00:38:03.929Z,17.875
2018-08-20T00:39:05.219Z,17.875
2018-08-20T00:40:04.592Z,17.937
2018-08-20T00:41:04.008Z,17.875
2018-08-20T00:42:04.317Z,17.937
2018-08-20T00:43:04.029Z,17.937
2018-08-20T00:44:04.158Z,18
2018-08-20T00:45:04.103Z,17.937
2018-08-20T00:46:03.952Z,17.937
2018-08-20T00:47:03.531Z,17.937
2018-08-20T00:48:04.839Z,17.937
2018-08-20T00:49:03.606Z,17.937
2018-08-20T00:50:03.887Z,17.937
2018-08-20T00:51:04.388Z,17.937
2018-08-20T00:52:03.991Z,17.875
2018-08-20T00:53:04.300Z,17.875
2018-08-20T00:54:04.583Z,17.875
2018-08-20T00:55:04.318Z,17.875
2018-08-20T00:56:04.048Z,17.937
2018-08-20T00:57:05.411Z,17.875
2018-08-20T00:58:03.657Z,17.875
2018-08-20T00:59:03.973Z,17.875
2018-08-20T01:00:04.487Z,17.875
2018-08-20T01:01:04.163Z,17.875
2018-08-20T01:02:03.975Z,17.875
2018-08-20T01:03:03.687Z,17.875
2018-08-20T01:04:04.046Z,17.812
2018-08-20T01:05:04.033Z,17.812
2018-08-20T01:06:04.191Z,17.75
2018-08-20T01:07:04.388Z,17.75
2018-08-20T01:08:04.367Z,17.687
2018-08-20T01:09:04.612Z,17.687
2018-08-20T01:10:03.726Z,17.687
2018-08-20T01:11:04.039Z,17.687
2018-08-20T01:12:04.492Z,17.625
2018-08-20T01:13:04.079Z,17.687
2018-08-20T01:14:04.425Z,17.687
2018-08-20T01:15:04.242Z,17.687
2018-08-20T01:16:03.724Z,17.687
2018-08-20T01:17:04.776Z,17.687
2018-08-20T01:18:03.839Z,17.625
2018-08-20T01:19:04.066Z,17.687
2018-08-20T01:20:03.838Z,17.687
2018-08-20T01:21:04.453Z,17.625
2018-08-20T01:22:04.478Z,17.562
2018-08-20T01:23:03.911Z,17.562
2018-08-20T01:24:03.870Z,17.5
2018-08-20T01:25:04.422Z,17.5
2018-08-20T01:26:03.929Z,17.5
2018-08-20T01:27:05.588Z,17.5
2018-08-20T01:28:03.919Z,17.5
2018-08-20T01:29:04.299Z,17.437
2018-08-20T01:30:04.699Z,17.5
2018-08-20T01:31:04.494Z,17.5
2018-08-20T01:32:04.219Z,17.5
2018-08-20T01:33:05.132Z,17.5
2018-08-20T01:34:04.332Z,17.5
2018-08-20T01:35:03.947Z,17.5
2018-08-20T01:36:04.732Z,17.437
2018-08-20T01:37:04.536Z,17.437
2018-08-20T01:38:04.371Z,17.437
2018-08-20T01:39:04.874Z,17.375
2018-08-20T01:40:04.413Z,17.375
2018-08-20T01:41:04.232Z,17.312
2018-08-20T01:42:04.090Z,17.375
2018-08-20T01:43:04.678Z,17.375
2018-08-20T01:44:04.352Z,17.375
2018-08-20T01:45:04.179Z,17.375
2018-08-20T01:46:03.798Z,17.375
2018-08-20T01:47:03.944Z,17.312
2018-08-20T01:48:04.517Z,17.312
2018-08-20T01:49:03.942Z,17.312
2018-08-20T01:50:03.739Z,17.25
2018-08-20T01:51:03.806Z,17.312
2018-08-20T01:52:05.811Z,17.312
2018-08-20T01:53:03.886Z,17.25
2018-08-20T01:54:03.954Z,17.312
2018-08-20T01:55:04.191Z,17.312
2018-08-20T01:56:04.565Z,17.25
2018-08-20T01:57:04.117Z,17.25
2018-08-20T01:58:03.734Z,17.25
2018-08-20T01:59:04.623Z,17.25
2018-08-20T02:00:04.005Z,17.312
2018-08-20T02:01:03.785Z,17.25
2018-08-20T02:02:03.953Z,17.312
2018-08-20T02:03:04.349Z,17.312
2018-08-20T02:04:04.012Z,17.312
2018-08-20T02:05:04.494Z,17.312
2018-08-20T02:06:03.957Z,17.312
2018-08-20T02:07:04.512Z,17.25
2018-08-20T02:08:04.727Z,17.25
2018-08-20T02:09:04.386Z,17.25
2018-08-20T02:10:03.964Z,17.25
2018-08-20T02:11:04.469Z,17.25
2018-08-20T02:12:04.003Z,17.25
2018-08-20T02:13:04.669Z,17.25
2018-08-20T02:14:04.790Z,17.25
2018-08-20T02:15:04.940Z,17.25
2018-08-20T02:16:04.226Z,17.187
2018-08-20T02:17:04.372Z,17.187
2018-08-20T02:18:04.068Z,17.125
2018-08-20T02:19:04.481Z,17.125
2018-08-20T02:20:03.628Z,17.062
2018-08-20T02:21:03.741Z,17.062
2018-08-20T02:22:05.314Z,17
2018-08-20T02:23:03.974Z,17
2018-08-20T02:24:04.401Z,17
2018-08-20T02:25:04.629Z,17
2018-08-20T02:26:04.189Z,17
2018-08-20T02:27:03.881Z,17
2018-08-20T02:28:04.666Z,16.937
2018-08-20T02:29:03.790Z,16.937
2018-08-20T02:30:03.874Z,16.937
2018-08-20T02:31:03.797Z,16.937
2018-08-20T02:32:03.790Z,16.937
2018-08-20T02:33:04.638Z,16.875
2018-08-20T02:34:04.567Z,16.875
2018-08-20T02:35:04.613Z,16.875
2018-08-20T02:36:04.101Z,16.875
2018-08-20T02:37:04.763Z,16.875
2018-08-20T02:38:04.524Z,16.875
2018-08-20T02:39:04.585Z,16.875
2018-08-20T02:40:04.037Z,16.875
2018-08-20T02:41:04.591Z,16.875
2018-08-20T02:42:03.656Z,16.875
2018-08-20T02:43:06.184Z,16.812
2018-08-20T02:44:05.253Z,16.812
2018-08-20T02:45:04.503Z,16.75
2018-08-20T02:46:04.172Z,16.75
2018-08-20T02:47:03.858Z,16.75
2018-08-20T02:48:04.145Z,16.75
2018-08-20T02:49:04.267Z,16.687
2018-08-20T02:50:04.551Z,16.687
2018-08-20T02:51:05.687Z,16.625
2018-08-20T02:52:04.166Z,16.625
2018-08-20T02:53:04.545Z,16.562
2018-08-20T02:54:04.170Z,16.562
2018-08-20T02:55:04.074Z,16.5
2018-08-20T02:56:05.164Z,16.5
2018-08-20T02:57:03.680Z,16.5
2018-08-20T02:58:04.787Z,16.5
2018-08-20T02:59:03.841Z,16.437
2018-08-20T03:00:04.212Z,16.437
2018-08-20T03:01:03.767Z,16.375
2018-08-20T03:02:04.055Z,16.437
2018-08-20T03:03:04.127Z,16.437
2018-08-20T03:04:04.503Z,16.437
2018-08-20T03:05:03.645Z,16.437
2018-08-20T03:06:04.236Z,16.437
2018-08-20T03:07:04.249Z,16.375
2018-08-20T03:08:03.787Z,16.312
2018-08-20T03:09:05.952Z,16.312
2018-08-20T03:10:04.532Z,16.312
2018-08-20T03:11:04.164Z,16.25
2018-08-20T03:12:04.607Z,16.25
2018-08-20T03:13:04.482Z,16.187
2018-08-20T03:14:04.119Z,16.125
2018-08-20T03:15:04.242Z,16.125
2018-08-20T03:16:04.494Z,16.125
2018-08-20T03:17:04.445Z,16.062
2018-08-20T03:18:04.268Z,16.062
2018-08-20T03:19:04.923Z,16.062
2018-08-20T03:20:03.917Z,16
2018-08-20T03:21:05.970Z,16
2018-08-20T03:22:04.214Z,15.937
2018-08-20T03:23:04.228Z,15.937
2018-08-20T03:24:04.375Z,15.937
2018-08-20T03:25:04.070Z,15.875
2018-08-20T03:26:03.775Z,15.937
2018-08-20T03:27:04.251Z,15.937
2018-08-20T03:28:03.864Z,15.937
2018-08-20T03:29:04.578Z,15.875
2018-08-20T03:30:04.935Z,15.875
2018-08-20T03:31:04.148Z,15.812
2018-08-20T03:32:04.364Z,15.812
2018-08-20T03:33:04.100Z,15.812
2018-08-20T03:34:04.141Z,15.812
2018-08-20T03:35:03.894Z,15.812
2018-08-20T03:36:05.923Z,15.812
2018-08-20T03:37:03.859Z,15.75
2018-08-20T03:38:03.860Z,15.75
2018-08-20T03:39:04.563Z,15.75
2018-08-20T03:40:04.613Z,15.75
2018-08-20T03:41:04.834Z,15.75
2018-08-20T03:42:04.084Z,15.75
2018-08-20T03:43:06.416Z,15.812
2018-08-20T03:44:04.605Z,15.812
2018-08-20T03:45:04.281Z,15.875
2018-08-20T03:46:04.216Z,15.875
2018-08-20T03:47:05.299Z,15.937
2018-08-20T03:48:05.566Z,15.875
2018-08-20T03:49:04.955Z,15.937
2018-08-20T03:50:04.526Z,15.937
2018-08-20T03:51:05.160Z,15.937
2018-08-20T03:52:04.619Z,15.937
2018-08-20T03:53:04.388Z,15.937
2018-08-20T03:54:03.626Z,15.875
2018-08-20T03:55:04.764Z,15.937
2018-08-20T03:56:04.274Z,15.937
2018-08-20T03:57:03.817Z,15.937
2018-08-20T03:58:04.030Z,15.937
2018-08-20T03:59:04.404Z,15.937
2018-08-20T04:00:04.175Z,15.937
2018-08-20T04:01:03.966Z,15.875
2018-08-20T04:02:04.115Z,15.812
2018-08-20T04:03:04.707Z,15.75
2018-08-20T04:04:04.516Z,15.687
2018-08-20T04:05:03.857Z,15.625
2018-08-20T04:06:05.529Z,15.562
2018-08-20T04:07:04.009Z,15.5
2018-08-20T04:08:04.570Z,15.437
2018-08-20T04:09:04.264Z,15.437
2018-08-20T04:10:03.975Z,15.437
2018-08-20T04:11:04.613Z,15.437
2018-08-20T04:12:04.489Z,15.437
2018-08-20T04:13:03.880Z,15.437
2018-08-20T04:14:03.717Z,15.5
2018-08-20T04:15:03.951Z,15.562
2018-08-20T04:16:04.354Z,15.625
2018-08-20T04:17:04.838Z,15.687
2018-08-20T04:18:03.822Z,15.75
2018-08-20T04:19:04.460Z,15.875
2018-08-20T04:20:04.610Z,15.937
2018-08-20T04:21:04.347Z,16
2018-08-20T04:22:03.866Z,16.125
2018-08-20T04:23:04.258Z,16.25
2018-08-20T04:24:04.556Z,16.375
2018-08-20T04:25:04.981Z,16.5
2018-08-20T04:26:05.972Z,16.625
2018-08-20T04:27:03.990Z,16.75
2018-08-20T04:28:06.336Z,16.937
2018-08-20T04:29:03.528Z,17
2018-08-20T04:30:04.194Z,17.125
2018-08-20T04:31:04.468Z,17.25
2018-08-20T04:32:04.096Z,17.375
2018-08-20T04:33:04.749Z,17.5
2018-08-20T04:34:04.343Z,17.625
2018-08-20T04:35:04.644Z,17.75
2018-08-20T04:36:04.366Z,17.875
2018-08-20T04:37:04.537Z,18
2018-08-20T04:38:05.817Z,18.125
2018-08-20T04:39:04.501Z,18.25
2018-08-20T04:40:03.803Z,18.312
2018-08-20T04:41:04.178Z,18.437
2018-08-20T04:42:03.716Z,18.562
2018-08-20T04:43:06.338Z,18.687
2018-08-20T04:44:04.662Z,18.875
2018-08-20T04:45:04.169Z,19
2018-08-20T04:46:03.868Z,19.125
2018-08-20T04:47:04.672Z,19.312
2018-08-20T04:48:03.709Z,19.375
2018-08-20T04:49:06.341Z,19.562
2018-08-20T04:50:04.424Z,19.687
2018-08-20T04:51:04.255Z,19.812
2018-08-20T04:52:03.809Z,19.875
2018-08-20T04:53:04.040Z,20
2018-08-20T04:54:04.260Z,20.125
2018-08-20T04:55:04.108Z,20.375
2018-08-20T04:56:03.820Z,20.5
2018-08-20T04:57:04.260Z,20.625
2018-08-20T04:58:04.458Z,20.75
2018-08-20T04:59:04.189Z,20.812
2018-08-20T05:00:03.911Z,20.812
2018-08-20T05:01:04.553Z,20.875
2018-08-20T05:02:04.208Z,20.937
2018-08-20T05:03:03.950Z,21.062
2018-08-20T05:04:04.080Z,21.062
2018-08-20T05:05:04.280Z,21.062
2018-08-20T05:06:04.645Z,21.187
2018-08-20T05:07:04.422Z,21.312
2018-08-20T05:08:04.695Z,21.437
2018-08-20T05:09:04.497Z,21.625
2018-08-20T05:10:03.776Z,21.812
2018-08-20T05:11:04.141Z,21.937
2018-08-20T05:12:05.224Z,22.062
2018-08-20T05:13:03.906Z,22.25
2018-08-20T05:14:04.190Z,22.375
2018-08-20T05:15:04.352Z,22.562
2018-08-20T05:16:04.147Z,22.812
2018-08-20T05:17:04.638Z,23
2018-08-20T05:18:03.761Z,23.187
2018-08-20T05:19:04.217Z,23.312
2018-08-20T05:20:04.485Z,23.625
2018-08-20T05:21:04.082Z,23.75
2018-08-20T05:22:03.991Z,23.937
2018-08-20T05:23:03.665Z,24.125
2018-08-20T05:24:04.468Z,24.375
2018-08-20T05:25:03.665Z,24.5
2018-08-20T05:26:04.035Z,24.562
2018-08-20T05:27:04.295Z,24.625
2018-08-20T05:28:03.875Z,24.437
2018-08-20T05:29:04.358Z,24.25
2018-08-20T05:30:04.152Z,24.062
2018-08-20T05:31:04.281Z,23.937
2018-08-20T05:32:06.959Z,24
2018-08-20T05:33:04.806Z,23.937
2018-08-20T05:34:04.039Z,24.062
2018-08-20T05:35:04.034Z,24.187
2018-08-20T05:36:04.188Z,24.437
2018-08-20T05:37:04.211Z,24.562
2018-08-20T05:38:04.111Z,24.687
2018-08-20T05:39:04.863Z,24.875
2018-08-20T05:40:04.115Z,25
2018-08-20T05:41:03.707Z,25
2018-08-20T05:42:04.958Z,25
2018-08-20T05:43:04.491Z,25
2018-08-20T05:44:03.755Z,24.937
2018-08-20T05:45:04.163Z,24.875
2018-08-20T05:46:04.262Z,24.937
2018-08-20T05:47:05.379Z,25.187
2018-08-20T05:48:04.697Z,25.187
2018-08-20T05:49:04.217Z,25.25
2018-08-20T05:50:03.723Z,25.125
2018-08-20T05:51:04.532Z,24.937
2018-08-20T05:52:05.208Z,24.812
2018-08-20T05:53:04.350Z,24.687
2018-08-20T05:54:04.671Z,24.562
2018-08-20T05:55:04.187Z,24.562
2018-08-20T05:56:04.205Z,24.687
2018-08-20T05:57:04.449Z,24.937
2018-08-20T05:58:04.142Z,25.187
2018-08-20T05:59:03.647Z,25.437
2018-08-20T06:00:03.962Z,25.562
2018-08-20T06:01:04.492Z,25.437
2018-08-20T06:02:05.363Z,25.437
2018-08-20T06:03:04.519Z,25.5
2018-08-20T06:04:04.058Z,25.5
2018-08-20T06:05:03.655Z,25.5
2018-08-20T06:06:04.026Z,25.375
2018-08-20T06:07:04.618Z,25.312
2018-08-20T06:08:04.381Z,25.312
2018-08-20T06:09:05.015Z,25.5
2018-08-20T06:10:04.872Z,25.562
2018-08-20T06:11:04.092Z,25.625
2018-08-20T06:12:04.057Z,25.562
2018-08-20T06:13:03.667Z,25.5
2018-08-20T06:14:04.317Z,25.562
2018-08-20T06:15:05.409Z,25.5
2018-08-20T06:16:03.823Z,25.437
2018-08-20T06:17:04.634Z,25.312
2018-08-20T06:18:04.465Z,25.125
2018-08-20T06:19:04.224Z,24.937
2018-08-20T06:20:03.905Z,24.75
2018-08-20T06:21:05.494Z,24.5
2018-08-20T06:22:03.891Z,24.375
2018-08-20T06:23:04.465Z,24.187
2018-08-20T06:24:03.937Z,24.125
2018-08-20T06:25:03.700Z,24.375
2018-08-20T06:26:04.389Z,24.687
2018-08-20T06:27:03.926Z,24.75
2018-08-20T06:28:04.574Z,25
2018-08-20T06:29:05.428Z,25.375
2018-08-20T06:30:04.623Z,25.562
2018-08-20T06:31:04.842Z,25.75
2018-08-20T06:32:04.378Z,25.937
2018-08-20T06:33:04.159Z,26.125
2018-08-20T06:34:04.422Z,26.375
2018-08-20T06:35:04.255Z,26.625
2018-08-20T06:36:04.387Z,26.687
2018-08-20T06:37:03.935Z,26.75
2018-08-20T06:38:04.923Z,26.937
2018-08-20T06:39:04.755Z,27
2018-08-20T06:40:05.224Z,26.937
2018-08-20T06:41:04.411Z,26.687
2018-08-20T06:42:06.607Z,26.812
2018-08-20T06:43:03.732Z,26.875
2018-08-20T06:44:03.836Z,26.812
2018-08-20T06:45:04.366Z,26.75
2018-08-20T06:46:04.644Z,26.5
2018-08-20T06:47:04.056Z,26.25
2018-08-20T06:48:04.199Z,26.25
2018-08-20T06:49:03.933Z,26.312
2018-08-20T06:50:04.478Z,26.312
2018-08-20T06:51:04.311Z,26.187
2018-08-20T06:52:04.595Z,26.187
2018-08-20T06:53:04.661Z,26
2018-08-20T06:54:03.677Z,25.937
2018-08-20T06:55:05.122Z,25.812
2018-08-20T06:56:03.921Z,25.812
2018-08-20T06:57:04.261Z,25.937
2018-08-20T06:58:04.192Z,26.062
2018-08-20T06:59:03.803Z,26.25
2018-08-20T07:00:04.332Z,26.437
2018-08-20T07:01:04.006Z,26.687
2018-08-20T07:02:04.581Z,26.937
2018-08-20T07:03:04.157Z,27.25
2018-08-20T07:04:03.752Z,27.562
2018-08-20T07:05:03.894Z,27.75
2018-08-20T07:06:04.278Z,27.937
2018-08-20T07:07:03.910Z,28
2018-08-20T07:08:04.183Z,28
2018-08-20T07:09:04.320Z,28
2018-08-20T07:10:04.724Z,27.937
2018-08-20T07:11:04.168Z,27.812
2018-08-20T07:12:04.552Z,27.625
2018-08-20T07:13:04.178Z,27.187
2018-08-20T07:14:03.746Z,26.687
2018-08-20T07:15:04.283Z,26.437
2018-08-20T07:16:03.950Z,26.187
2018-08-20T07:17:05.617Z,26
2018-08-20T07:18:04.204Z,25.812
2018-08-20T07:19:03.927Z,25.812
2018-08-20T07:20:05.465Z,25.812
2018-08-20T07:21:03.439Z,25.75
2018-08-20T07:22:04.036Z,25.625
2018-08-20T07:23:04.331Z,25.687
2018-08-20T07:24:04.458Z,25.812
2018-08-20T07:25:04.142Z,26.125
2018-08-20T07:26:04.110Z,26.25
2018-08-20T07:27:04.546Z,26.25
2018-08-20T07:28:03.677Z,26.187
2018-08-20T07:29:03.980Z,26.187
2018-08-20T07:30:03.661Z,26.062
2018-08-20T07:31:04.073Z,25.937
2018-08-20T07:32:04.370Z,25.875
2018-08-20T07:33:03.741Z,25.812
2018-08-20T07:34:04.228Z,25.812
2018-08-20T07:35:03.850Z,25.75
2018-08-20T07:36:04.693Z,25.625
2018-08-20T07:37:04.532Z,25.5
2018-08-20T07:38:03.564Z,25.5
2018-08-20T07:39:04.565Z,25.5
2018-08-20T07:40:03.933Z,25.5
2018-08-20T07:41:03.673Z,25.375
2018-08-20T07:42:04.283Z,25.312
2018-08-20T07:43:04.886Z,25.312
2018-08-20T07:44:04.056Z,24.937
2018-08-20T07:45:03.712Z,24.75
2018-08-20T07:46:04.602Z,24.625
2018-08-20T07:47:03.889Z,24.687
2018-08-20T07:48:04.133Z,24.75
2018-08-20T07:49:04.082Z,24.687
2018-08-20T07:50:04.053Z,24.625
2018-08-20T07:51:04.697Z,24.625
2018-08-20T07:52:04.128Z,24.5
2018-08-20T07:53:04.747Z,24.312
2018-08-20T07:54:04.046Z,24.375
2018-08-20T07:55:04.867Z,24.5
2018-08-20T07:56:04.441Z,24.5
2018-08-20T07:57:03.894Z,24.5
2018-08-20T07:58:04.704Z,24.5
2018-08-20T07:59:04.117Z,24.625
2018-08-20T08:00:04.485Z,24.687
2018-08-20T08:01:04.157Z,24.812
2018-08-20T08:02:03.927Z,24.937
2018-08-20T08:03:03.717Z,24.937
2018-08-20T08:04:04.097Z,24.937
2018-08-20T08:05:03.818Z,24.937
2018-08-20T08:06:03.749Z,24.875
2018-08-20T08:07:04.472Z,24.937
2018-08-20T08:08:04.322Z,24.937
2018-08-20T08:09:04.264Z,24.937
2018-08-20T08:10:03.856Z,24.875
2018-08-20T08:11:04.207Z,24.875
2018-08-20T08:12:03.691Z,24.75
2018-08-20T08:13:04.731Z,24.812
2018-08-20T08:14:04.548Z,24.812
2018-08-20T08:15:04.311Z,24.875
2018-08-20T08:16:03.837Z,24.812
2018-08-20T08:17:04.274Z,24.5
2018-08-20T08:18:03.966Z,24.375
2018-08-20T08:19:04.494Z,24.375
2018-08-20T08:20:04.161Z,24.375
2018-08-20T08:21:04.014Z,24.375
2018-08-20T08:22:03.388Z,24.375
2018-08-20T08:23:04.477Z,24.5
2018-08-20T08:24:03.747Z,24.562
2018-08-20T08:25:04.184Z,24.687
2018-08-20T08:26:04.613Z,24.687
2018-08-20T08:27:06.720Z,24.437
2018-08-20T08:28:03.819Z,24.375
2018-08-20T08:29:04.367Z,24.437
2018-08-20T08:30:03.453Z,24.562
2018-08-20T08:31:04.285Z,24.5
2018-08-20T08:32:03.756Z,24.687
2018-08-20T08:33:04.493Z,24.875
2018-08-20T08:34:03.814Z,24.937
2018-08-20T08:35:03.886Z,25.125
2018-08-20T08:36:04.298Z,25.312
2018-08-20T08:37:04.363Z,25.437
2018-08-20T08:38:04.946Z,25.625
2018-08-20T08:39:04.458Z,25.812
2018-08-20T08:40:03.829Z,25.875
2018-08-20T08:41:05.662Z,25.687
2018-08-20T08:42:04.175Z,25.562
2018-08-20T08:43:03.779Z,25.5
2018-08-20T08:44:05.370Z,25.437
2018-08-20T08:45:03.844Z,25.5
2018-08-20T08:46:03.657Z,25.5
2018-08-20T08:47:04.054Z,25.562
2018-08-20T08:48:04.537Z,25.562
2018-08-20T08:49:04.254Z,25.687
2018-08-20T08:50:04.465Z,25.625
2018-08-20T08:51:04.134Z,25.562
2018-08-20T08:52:04.574Z,25.5
2018-08-20T08:53:04.226Z,25.5
2018-08-20T08:54:04.461Z,25.625
2018-08-20T08:55:04.328Z,25.562
2018-08-20T08:56:04.476Z,25.437
2018-08-20T08:57:04.302Z,25.437
2018-08-20T08:58:03.917Z,25.562
2018-08-20T08:59:04.192Z,25.625
2018-08-20T09:00:03.960Z,25.562
2018-08-20T09:01:04.698Z,25.625
2018-08-20T09:02:03.928Z,25.75
2018-08-20T09:03:04.696Z,25.875
2018-08-20T09:04:04.454Z,26.125
2018-08-20T09:05:05.286Z,26.437
2018-08-20T09:06:05.602Z,26.625
2018-08-20T09:07:03.973Z,26.75
2018-08-20T09:08:04.708Z,27
2018-08-20T09:09:04.835Z,27
2018-08-20T09:10:03.892Z,27.125
2018-08-20T09:11:04.000Z,27.125
2018-08-20T09:12:04.608Z,27
2018-08-20T09:13:04.092Z,27
2018-08-20T09:14:03.746Z,27
2018-08-20T09:15:04.209Z,27.125
2018-08-20T09:16:04.348Z,27.25
2018-08-20T09:17:04.396Z,27.187
2018-08-20T09:18:04.072Z,27.125
2018-08-20T09:19:03.864Z,27.125
2018-08-20T09:20:04.118Z,27.25
2018-08-20T09:21:04.420Z,27.312
2018-08-20T09:22:04.947Z,27.312
2018-08-20T09:23:04.150Z,27.375
2018-08-20T09:24:04.602Z,27.125
2018-08-20T09:25:03.983Z,26.812
2018-08-20T09:26:03.821Z,26.75
2018-08-20T09:27:04.215Z,26.625
2018-08-20T09:28:03.701Z,26.562
2018-08-20T09:29:04.061Z,26.625
2018-08-20T09:30:04.295Z,26.625
2018-08-20T09:31:03.774Z,26.625
2018-08-20T09:32:04.311Z,26.625
2018-08-20T09:33:04.904Z,26.812
2018-08-20T09:34:04.233Z,26.875
2018-08-20T09:35:04.723Z,26.625
2018-08-20T09:36:03.838Z,26.5
2018-08-20T09:37:04.543Z,26.5
2018-08-20T09:38:05.235Z,26.687
2018-08-20T09:39:04.571Z,26.5
2018-08-20T09:40:03.974Z,26.312
2018-08-20T09:41:03.749Z,26.375
2018-08-20T09:42:04.225Z,26.437
2018-08-20T09:43:04.377Z,26.437
2018-08-20T09:44:05.717Z,26.25
2018-08-20T09:45:03.955Z,26.312
2018-08-20T09:46:04.583Z,26.375
2018-08-20T09:47:04.406Z,26.437
2018-08-20T09:48:04.635Z,26.437
2018-08-20T09:49:04.017Z,26.375
2018-08-20T09:50:04.666Z,26.375
2018-08-20T09:51:04.435Z,26.312
2018-08-20T09:52:04.265Z,26.312
2018-08-20T09:53:04.273Z,26.25
2018-08-20T09:54:04.169Z,26.125
2018-08-20T09:55:03.783Z,26.062
2018-08-20T09:56:04.496Z,26.062
2018-08-20T09:57:04.461Z,26.062
2018-08-20T09:58:04.413Z,26.125
2018-08-20T09:59:04.053Z,26.062
2018-08-20T10:00:04.025Z,26.062
2018-08-20T10:01:04.445Z,26.062
2018-08-20T10:02:04.073Z,26.062
2018-08-20T10:03:05.247Z,25.937
2018-08-20T10:04:04.444Z,25.937
2018-08-20T10:05:03.644Z,25.875
2018-08-20T10:06:03.632Z,25.875
2018-08-20T10:07:03.931Z,25.937
2018-08-20T10:08:04.308Z,25.812
2018-08-20T10:09:04.405Z,25.812
2018-08-20T10:10:03.916Z,25.687
2018-08-20T10:11:04.403Z,25.562
2018-08-20T10:12:04.183Z,25.5
2018-08-20T10:13:04.796Z,25.437
2018-08-20T10:14:05.246Z,25.312
2018-08-20T10:15:04.221Z,25.187
2018-08-20T10:16:04.797Z,25.187
2018-08-20T10:17:04.120Z,25.125
2018-08-20T10:18:04.645Z,25.187
2018-08-20T10:19:04.471Z,24.937
2018-08-20T10:20:03.625Z,24.875
2018-08-20T10:21:03.803Z,24.812
2018-08-20T10:22:04.634Z,24.625
2018-08-20T10:23:05.221Z,24.562
2018-08-20T10:24:04.359Z,24.5
2018-08-20T10:25:03.749Z,24.625
2018-08-20T10:26:03.855Z,24.75
2018-08-20T10:27:04.226Z,24.875
2018-08-20T10:28:03.774Z,24.875
2018-08-20T10:29:04.263Z,25.062
2018-08-20T10:30:03.976Z,25.312
2018-08-20T10:31:04.440Z,25.625
2018-08-20T10:32:04.266Z,25.937
2018-08-20T10:33:03.962Z,26.062
2018-08-20T10:34:04.759Z,26.187
2018-08-20T10:35:04.216Z,26.25
2018-08-20T10:36:03.712Z,26.062
2018-08-20T10:37:03.908Z,26.25
2018-08-20T10:38:04.264Z,26.312
2018-08-20T10:39:05.065Z,26.312
2018-08-20T10:40:04.566Z,26.437
2018-08-20T10:41:03.845Z,26.687
2018-08-20T10:42:04.443Z,26.937
2018-08-20T10:43:04.459Z,27.187
2018-08-20T10:44:03.695Z,27.25
2018-08-20T10:45:03.864Z,27.562
2018-08-20T10:46:04.550Z,27.687
2018-08-20T10:47:04.267Z,27.75
2018-08-20T10:48:04.256Z,27.687
2018-08-20T10:49:03.770Z,27.75
2018-08-20T10:50:06.263Z,27.687
2018-08-20T10:51:04.689Z,27.5
2018-08-20T10:52:04.219Z,27.5
2018-08-20T10:53:03.899Z,27.437
2018-08-20T10:54:04.382Z,27.187
2018-08-20T10:55:04.189Z,27.125
2018-08-20T10:56:05.575Z,27.062
2018-08-20T10:57:03.891Z,26.812
2018-08-20T10:58:06.376Z,26.812
2018-08-20T10:59:04.381Z,26.687
2018-08-20T11:00:04.147Z,26.687
2018-08-20T11:01:03.803Z,26.5
2018-08-20T11:02:04.418Z,26.437
2018-08-20T11:03:04.074Z,26.25
2018-08-20T11:04:03.657Z,26.062
2018-08-20T11:05:03.790Z,25.875
2018-08-20T11:06:04.384Z,25.687
2018-08-20T11:07:04.623Z,25.812
2018-08-20T11:08:04.222Z,25.75
2018-08-20T11:09:04.830Z,25.625
2018-08-20T11:10:04.223Z,25.687
2018-08-20T11:11:04.733Z,25.75
2018-08-20T11:12:04.451Z,25.812
2018-08-20T11:13:05.092Z,25.812
2018-08-20T11:14:04.124Z,25.875
2018-08-20T11:15:03.881Z,26
2018-08-20T11:16:04.801Z,25.875
2018-08-20T11:17:04.867Z,25.937
2018-08-20T11:18:04.630Z,25.937
2018-08-20T11:19:04.339Z,25.875
2018-08-20T11:20:04.493Z,25.625
2018-08-20T11:21:04.395Z,25.562
2018-08-20T11:22:03.646Z,25.25
2018-08-20T11:23:04.626Z,25.25
2018-08-20T11:24:04.029Z,25.062
2018-08-20T11:25:04.426Z,24.937
2018-08-20T11:26:03.983Z,24.937
2018-08-20T11:27:04.278Z,24.937
2018-08-20T11:28:04.371Z,24.875
2018-08-20T11:29:04.010Z,24.937
2018-08-20T11:30:05.449Z,24.875
2018-08-20T11:31:03.911Z,24.75
2018-08-20T11:32:04.739Z,24.812
2018-08-20T11:33:04.554Z,24.75
2018-08-20T11:34:04.191Z,24.625
2018-08-20T11:35:04.582Z,24.625
2018-08-20T11:36:04.311Z,24.625
2018-08-20T11:37:04.211Z,24.562
2018-08-20T11:38:03.969Z,24.5
2018-08-20T11:39:04.721Z,24.437
2018-08-20T11:40:04.152Z,24.375
2018-08-20T11:41:03.693Z,24.375
2018-08-20T11:42:03.875Z,24.312
2018-08-20T11:43:05.577Z,24.25
2018-08-20T11:44:03.968Z,24.25
2018-08-20T11:45:05.480Z,24.125
2018-08-20T11:46:04.674Z,24.125
2018-08-20T11:47:03.993Z,24.125
2018-08-20T11:48:04.585Z,24.125
2018-08-20T11:49:04.180Z,24.187
2018-08-20T11:50:03.771Z,24.25
2018-08-20T11:51:04.026Z,24.375
2018-08-20T11:52:04.256Z,24.375
2018-08-20T11:53:04.007Z,24.375
2018-08-20T11:54:04.576Z,24.437
2018-08-20T11:55:04.093Z,24.5
2018-08-20T11:56:04.334Z,24.562
2018-08-20T11:57:03.816Z,24.687
2018-08-20T11:58:04.333Z,24.75
2018-08-20T11:59:04.755Z,24.875
2018-08-20T12:00:03.727Z,24.937
2018-08-20T12:01:03.983Z,25.062
2018-08-20T12:02:04.562Z,25.125
2018-08-20T12:03:04.346Z,25.25
2018-08-20T12:04:04.121Z,25.375
2018-08-20T12:05:03.723Z,25.562
2018-08-20T12:06:04.372Z,25.812
2018-08-20T12:07:04.760Z,26
2018-08-20T12:08:04.348Z,26
2018-08-20T12:09:04.981Z,26
2018-08-20T12:10:04.591Z,25.875
2018-08-20T12:11:05.132Z,25.812
2018-08-20T12:12:04.504Z,25.812
2018-08-20T12:13:03.886Z,25.875
2018-08-20T12:14:04.030Z,25.937
2018-08-20T12:15:04.533Z,26.062
2018-08-20T12:16:04.227Z,26.125
2018-08-20T12:17:04.758Z,26.125
2018-08-20T12:18:04.012Z,26.25
2018-08-20T12:19:03.798Z,26.25
2018-08-20T12:20:03.991Z,26.25
2018-08-20T12:21:05.129Z,26.25
2018-08-20T12:22:03.807Z,26.062
2018-08-20T12:23:04.453Z,26
2018-08-20T12:24:03.757Z,25.875
2018-08-20T12:25:05.737Z,25.687
2018-08-20T12:26:03.853Z,25.375
2018-08-20T12:27:04.513Z,25.25
2018-08-20T12:28:03.691Z,25.125
2018-08-20T12:29:04.796Z,24.937
2018-08-20T12:30:04.571Z,24.75
2018-08-20T12:31:04.095Z,24.625
2018-08-20T12:32:03.918Z,24.562
2018-08-20T12:33:04.497Z,24.5
2018-08-20T12:34:04.486Z,24.562
2018-08-20T12:35:03.818Z,24.5
2018-08-20T12:36:03.999Z,24.562
2018-08-20T12:37:04.545Z,24.625
2018-08-20T12:38:04.362Z,24.625
2018-08-20T12:39:04.766Z,24.75